Time;durP1;ratioP1;P1;durP2;ratioP2;P2;SDS_P1;SDS_P2;PMS_P1;PMS_P2;Temp;Humidity;BMP_temperature;BMP_pressure;BME280_temperature;BME280_humidity;BME280_pressure;Samples;Min_cycle;Max_cycle;Signal;HPM_P1;HPM_P2
2023/04/21 00:00:10;;;;;;;4.67;4.17;;;11.40;99.90;;;;;;1880959;75;21150;-82
2023/04/21 00:03:04;;;;;;;6.45;3.98;;;11.40;99.90;;;;;;1886475;75;21177;-82
2023/04/21 00:05:57;;;;;;;4.80;4.30;;;11.50;99.90;;;;;;1882782;75;21077;-82
2023/04/21 00:08:49;;;;;;;4.35;3.77;;;11.40;99.90;;;;;;1884311;75;21160;-82
2023/04/21 00:11:40;;;;;;;4.53;3.77;;;11.50;99.90;;;;;;1872879;75;21115;-82
2023/04/21 00:14:31;;;;;;;3.40;3.10;;;11.40;99.90;;;;;;1875702;75;21189;-82
2023/04/21 00:17:23;;;;;;;4.67;3.50;;;11.40;99.90;;;;;;1874499;76;21068;-82
2023/04/21 00:20:15;;;;;;;4.20;3.55;;;11.50;99.90;;;;;;1896914;75;21124;-82
2023/04/21 00:23:09;;;;;;;3.92;3.50;;;11.50;99.90;;;;;;1881731;75;21121;-82
2023/04/21 00:26:01;;;;;;;4.45;3.30;;;11.40;99.90;;;;;;1886633;75;21091;-81
2023/04/21 00:28:55;;;;;;;5.28;3.50;;;11.40;99.90;;;;;;1892548;75;21115;-83
2023/04/21 00:31:46;;;;;;;3.42;3.12;;;11.40;99.90;;;;;;1895119;75;21099;-82
2023/04/21 00:34:38;;;;;;;6.15;3.60;;;11.40;99.90;;;;;;1872906;75;21098;-82
2023/04/21 00:37:29;;;;;;;4.33;3.65;;;11.40;99.90;;;;;;1886640;75;21602;-82
2023/04/21 00:40:21;;;;;;;3.87;3.47;;;11.40;99.90;;;;;;1871740;76;21176;-81
2023/04/21 00:43:12;;;;;;;4.37;3.70;;;11.40;99.90;;;;;;1892276;75;21106;-82
2023/04/21 00:46:04;;;;;;;4.30;3.60;;;11.30;99.90;;;;;;1885133;75;21144;-82
2023/04/21 00:48:55;;;;;;;4.28;3.58;;;11.30;99.90;;;;;;1870794;76;21111;-82
2023/04/21 00:51:47;;;;;;;5.53;4.05;;;11.30;99.90;;;;;;1883088;75;21173;-82
2023/04/21 00:54:39;;;;;;;4.30;3.90;;;11.20;99.90;;;;;;1876426;75;21582;-82
2023/04/21 00:57:33;;;;;;;5.58;4.30;;;11.30;99.90;;;;;;1873950;75;21063;-82
2023/04/21 01:00:24;;;;;;;4.87;3.83;;;11.30;99.90;;;;;;1885757;75;21090;-82
2023/04/21 01:05:56;;;;;;;4.42;4.03;;;11.20;99.90;;;;;;1953001;72;22275;-81
2023/04/21 01:08:48;;;;;;;4.83;3.90;;;11.20;99.90;;;;;;1917021;75;21141;-81
2023/04/21 01:11:41;;;;;;;5.08;4.17;;;11.20;99.90;;;;;;1912371;75;21230;-83
2023/04/21 01:14:32;;;;;;;4.80;4.08;;;11.30;99.90;;;;;;1901112;75;21150;-82
2023/04/21 01:17:24;;;;;;;4.47;3.50;;;11.30;99.90;;;;;;1917150;75;21167;-82
2023/04/21 01:20:16;;;;;;;4.08;3.50;;;11.30;99.90;;;;;;1917028;75;21184;-82
2023/04/21 01:25:45;;;;;;;3.55;2.90;;;11.30;99.90;;;;;;1939800;72;22200;-81
2023/04/21 01:28:37;;;;;;;4.37;3.15;;;11.30;99.90;;;;;;1901020;73;21148;-84
2023/04/21 01:31:29;;;;;;;4.72;3.05;;;11.20;99.90;;;;;;1935669;74;21185;-83
2023/04/21 01:34:21;;;;;;;3.65;2.85;;;11.20;99.90;;;;;;1935093;74;21187;-83
2023/04/21 01:37:14;;;;;;;3.35;2.60;;;11.30;99.90;;;;;;1935714;74;21051;-81
2023/04/21 01:40:09;;;;;;;3.98;2.62;;;11.20;99.90;;;;;;1910988;74;21082;-81
2023/04/21 01:43:02;;;;;;;2.58;2.30;;;11.30;99.90;;;;;;1934651;74;21176;-82
2023/04/21 01:45:54;;;;;;;3.90;2.60;;;11.30;99.90;;;;;;1928589;74;21105;-82
2023/04/21 01:48:45;;;;;;;4.10;2.40;;;11.30;99.90;;;;;;1892799;74;21104;-81
2023/04/21 01:51:37;;;;;;;3.08;2.60;;;11.30;99.90;;;;;;1915623;74;21118;-81
2023/04/21 01:54:28;;;;;;;4.45;2.72;;;11.30;99.90;;;;;;1926215;73;21116;-82
2023/04/21 01:57:19;;;;;;;3.12;2.83;;;11.20;99.90;;;;;;1900031;74;21207;-82
2023/04/21 02:00:15;;;;;;;3.37;2.42;;;11.20;99.90;;;;;;1935771;74;21125;-82
2023/04/21 02:03:07;;;;;;;3.77;2.87;;;11.20;99.90;;;;;;1913222;74;21178;-82
2023/04/21 02:05:58;;;;;;;4.05;3.25;;;11.20;99.90;;;;;;1909015;74;21132;-82
2023/04/21 02:08:50;;;;;;;4.62;3.50;;;11.20;99.90;;;;;;1933621;74;21167;-82
2023/04/21 02:11:41;;;;;;;3.72;3.15;;;11.20;99.90;;;;;;1935343;74;21123;-82
2023/04/21 02:14:33;;;;;;;4.28;3.87;;;11.10;99.90;;;;;;1937900;74;21054;-82
2023/04/21 02:17:25;;;;;;;5.00;4.08;;;11.00;99.90;;;;;;1932695;74;21102;-82
2023/04/21 02:20:18;;;;;;;4.50;3.67;;;10.90;99.90;;;;;;1932468;74;21198;-82
2023/04/21 02:23:10;;;;;;;4.87;4.12;;;10.90;99.90;;;;;;1884682;76;21115;-81
2023/04/21 02:26:01;;;;;;;6.75;4.20;;;10.90;99.90;;;;;;1914594;74;21165;-82
2023/04/21 02:28:54;;;;;;;4.90;4.40;;;10.80;99.90;;;;;;1908101;74;21135;-81
2023/04/21 02:31:46;;;;;;;6.08;4.60;;;10.70;99.90;;;;;;1880973;76;21096;-81
2023/04/21 02:34:40;;;;;;;5.37;4.30;;;10.70;99.90;;;;;;1932456;74;21496;-82
2023/04/21 02:37:32;;;;;;;5.62;4.67;;;10.70;99.90;;;;;;1928237;74;21086;-82
2023/04/21 02:40:24;;;;;;;5.78;4.87;;;10.70;99.90;;;;;;1931887;74;21055;-82
2023/04/21 02:43:16;;;;;;;7.42;5.33;;;10.70;99.90;;;;;;1932028;74;21357;-83
2023/04/21 02:46:10;;;;;;;5.55;4.67;;;10.70;99.90;;;;;;1889557;74;21171;-82
2023/04/21 02:49:03;;;;;;;6.00;4.40;;;10.60;99.90;;;;;;1910401;74;21595;-82
2023/04/21 02:51:54;;;;;;;6.25;4.67;;;10.70;99.90;;;;;;1901853;74;21079;-82
2023/04/21 02:54:46;;;;;;;8.00;4.87;;;10.70;99.90;;;;;;1900674;74;21117;-82
2023/04/21 02:57:37;;;;;;;6.60;5.15;;;10.70;99.90;;;;;;1914269;74;21684;-82
2023/04/21 03:00:29;;;;;;;6.00;5.40;;;10.60;99.90;;;;;;1918906;74;21181;-82
2023/04/21 03:03:20;;;;;;;5.80;5.20;;;10.50;99.90;;;;;;1915310;73;21132;-82
2023/04/21 03:06:13;;;;;;;7.60;5.62;;;10.50;99.90;;;;;;1897162;75;21130;-82
2023/04/21 03:09:05;;;;;;;8.93;6.95;;;10.50;99.90;;;;;;1904736;74;21373;-82
2023/04/21 03:11:56;;;;;;;7.10;6.35;;;10.40;99.90;;;;;;1908158;74;21127;-82
2023/04/21 03:14:49;;;;;;;9.60;7.17;;;10.30;99.90;;;;;;1932015;74;21079;-82
2023/04/21 03:17:41;;;;;;;10.23;7.45;;;10.30;99.90;;;;;;1913396;74;21206;-82
2023/04/21 03:20:32;;;;;;;10.03;7.62;;;10.20;99.90;;;;;;1925848;74;21601;-82
2023/04/21 03:23:24;;;;;;;9.65;7.97;;;10.20;99.90;;;;;;1926100;74;21067;-82
2023/04/21 03:26:16;;;;;;;10.13;7.95;;;10.30;99.90;;;;;;1905147;74;21138;-82
2023/04/21 03:29:08;;;;;;;11.30;8.45;;;10.30;99.90;;;;;;1917034;74;21119;-82
2023/04/21 03:32:00;;;;;;;11.55;8.63;;;10.30;99.90;;;;;;1900461;74;21118;-82
2023/04/21 03:34:51;;;;;;;9.90;8.43;;;10.20;99.90;;;;;;1902355;74;21097;-82
2023/04/21 03:37:43;;;;;;;10.53;8.63;;;10.20;99.90;;;;;;1905747;74;21052;-82
2023/04/21 03:40:34;;;;;;;11.18;9.18;;;10.20;99.90;;;;;;1895815;74;21059;-82
2023/04/21 03:43:26;;;;;;;11.73;8.83;;;10.20;99.90;;;;;;1870423;76;21106;-82
2023/04/21 03:46:21;;;;;;;11.18;8.50;;;10.20;99.90;;;;;;1914683;74;21091;-82
2023/04/21 03:49:13;;;;;;;8.83;7.65;;;10.10;99.90;;;;;;1920459;74;21118;-82
2023/04/21 03:52:05;;;;;;;8.85;7.92;;;10.20;99.90;;;;;;1919756;74;21693;-82
2023/04/21 03:54:57;;;;;;;10.00;8.33;;;10.20;99.90;;;;;;1911401;74;21134;-82
2023/04/21 03:57:48;;;;;;;9.40;8.18;;;10.20;99.90;;;;;;1925371;74;21178;-82
2023/04/21 04:00:40;;;;;;;10.35;8.23;;;10.30;99.90;;;;;;1882865;74;21102;-82
2023/04/21 04:03:32;;;;;;;9.18;8.25;;;10.30;99.90;;;;;;1918560;74;21095;-82
2023/04/21 04:06:23;;;;;;;11.63;8.88;;;10.30;99.90;;;;;;1918996;74;21056;-81
2023/04/21 04:09:15;;;;;;;9.68;8.35;;;10.20;99.90;;;;;;1898858;74;21181;-82
2023/04/21 04:12:07;;;;;;;10.28;8.60;;;10.20;99.90;;;;;;1911065;74;21205;-82
2023/04/21 04:15:00;;;;;;;9.98;8.50;;;10.10;99.90;;;;;;1934951;74;21091;-82
2023/04/21 04:17:52;;;;;;;11.10;9.60;;;10.10;99.90;;;;;;1919028;74;21173;-82
2023/04/21 04:20:44;;;;;;;11.73;9.55;;;10.10;99.90;;;;;;1882256;75;21134;-82
2023/04/21 04:26:17;;;;;;;12.82;10.32;;;10.10;99.90;;;;;;1952451;72;22473;-81
2023/04/21 04:29:10;;;;;;;12.80;9.88;;;10.10;99.90;;;;;;1904744;75;21066;-83
2023/04/21 04:32:02;;;;;;;12.95;10.23;;;10.00;99.90;;;;;;1904663;75;21091;-82
2023/04/21 04:34:55;;;;;;;12.43;9.98;;;10.00;99.90;;;;;;1904720;75;21289;-82
2023/04/21 04:37:47;;;;;;;11.95;10.00;;;10.00;99.90;;;;;;1906005;74;21111;-81
2023/04/21 04:40:38;;;;;;;13.43;10.30;;;10.00;99.90;;;;;;1919379;74;21448;-82
2023/04/21 04:43:32;;;;;;;13.15;10.85;;;10.00;99.90;;;;;;1918171;74;21573;-82
2023/04/21 04:46:23;;;;;;;12.23;10.85;;;9.90;99.90;;;;;;1907112;74;21114;-81
2023/04/21 04:49:15;;;;;;;15.50;10.25;;;9.90;99.90;;;;;;1927244;74;21141;-82
2023/04/21 04:52:07;;;;;;;13.30;10.80;;;9.90;99.90;;;;;;1904413;75;21237;-82
2023/04/21 04:54:59;;;;;;;11.43;10.20;;;9.90;99.90;;;;;;1904687;75;21058;-81
2023/04/21 04:57:50;;;;;;;14.98;11.08;;;9.90;99.90;;;;;;1864773;76;21605;-81
2023/04/21 05:03:19;;;;;;;12.30;10.68;;;9.90;99.90;;;;;;1922506;72;22225;-82
2023/04/21 05:06:12;;;;;;;11.97;10.65;;;10.00;99.90;;;;;;1897102;75;21113;-81
2023/04/21 05:09:04;;;;;;;11.95;10.65;;;10.00;99.90;;;;;;1886757;75;21132;-83
2023/04/21 05:11:56;;;;;;;12.55;10.75;;;10.00;99.90;;;;;;1905953;75;21113;-83
2023/04/21 05:14:47;;;;;;;12.75;10.50;;;10.00;99.90;;;;;;1871603;76;21192;-82
2023/04/21 05:17:39;;;;;;;13.15;10.88;;;10.10;99.90;;;;;;1884245;76;21188;-82
2023/04/21 05:20:30;;;;;;;14.13;11.50;;;10.10;99.90;;;;;;1904407;75;21141;-82
2023/04/21 05:23:21;;;;;;;13.30;11.18;;;10.10;99.90;;;;;;1854597;76;21182;-82
2023/04/21 05:28:58;;;;;;;14.20;10.98;;;10.10;99.90;;;;;;1948421;72;22142;-83
2023/04/21 05:31:49;;;;;;;13.22;11.15;;;10.10;99.90;;;;;;1883615;75;21240;-82
2023/04/21 05:34:41;;;;;;;15.98;12.50;;;10.00;99.90;;;;;;1909562;75;21109;-83
2023/04/21 05:37:32;;;;;;;15.35;11.48;;;10.10;99.90;;;;;;1895978;75;21125;-82
2023/04/21 05:40:24;;;;;;;16.42;11.15;;;10.00;99.90;;;;;;1883936;76;21153;-81
2023/04/21 05:43:15;;;;;;;14.78;11.25;;;10.00;99.90;;;;;;1905787;75;21095;-82
2023/04/21 05:46:09;;;;;;;14.78;10.82;;;10.00;99.90;;;;;;1906679;75;21163;-82
2023/04/21 05:49:01;;;;;;;14.68;11.10;;;10.10;99.90;;;;;;1905737;75;21097;-81
2023/04/21 05:51:53;;;;;;;13.70;10.65;;;10.20;99.90;;;;;;1883798;76;21098;-82
2023/04/21 05:54:45;;;;;;;14.55;10.43;;;10.20;99.90;;;;;;1896656;75;21131;-82
2023/04/21 05:57:36;;;;;;;14.40;10.55;;;10.40;99.90;;;;;;1894967;75;21201;-82
2023/04/21 06:00:28;;;;;;;13.43;11.03;;;10.40;99.90;;;;;;1893612;75;21063;-81
2023/04/21 06:03:19;;;;;;;13.35;10.35;;;10.40;99.90;;;;;;1883572;76;21202;-82
2023/04/21 06:06:12;;;;;;;12.10;10.20;;;10.50;99.90;;;;;;1896976;75;21124;-82
2023/04/21 06:09:04;;;;;;;10.20;9.10;;;10.50;99.90;;;;;;1908941;75;21123;-82
2023/04/21 06:11:56;;;;;;;9.63;7.42;;;10.60;99.90;;;;;;1886619;75;21103;-82
2023/04/21 06:14:47;;;;;;;9.53;6.45;;;10.70;99.90;;;;;;1896591;75;21167;-82
2023/04/21 06:17:39;;;;;;;7.87;6.03;;;10.70;99.90;;;;;;1898276;75;21051;-83
2023/04/21 06:20:31;;;;;;;5.55;5.03;;;10.90;99.90;;;;;;1898182;75;21147;-82
2023/04/21 06:23:22;;;;;;;7.55;4.78;;;11.00;99.90;;;;;;1873282;76;21121;-82
2023/04/21 06:26:13;;;;;;;6.95;5.00;;;11.10;99.90;;;;;;1904321;75;21060;-82
2023/04/21 06:29:08;;;;;;;5.75;4.65;;;11.00;99.90;;;;;;1899340;75;21171;-82
2023/04/21 06:32:00;;;;;;;7.50;5.92;;;11.10;99.90;;;;;;1906477;75;21114;-82
2023/04/21 06:34:52;;;;;;;6.85;6.10;;;11.10;99.90;;;;;;1906141;75;21118;-82
2023/04/21 06:37:43;;;;;;;7.05;6.35;;;11.20;99.90;;;;;;1883856;76;21059;-82
2023/04/21 06:40:35;;;;;;;7.95;6.33;;;11.30;99.90;;;;;;1899462;75;21103;-82
2023/04/21 06:43:27;;;;;;;6.40;5.45;;;11.40;99.90;;;;;;1894433;75;21146;-82
2023/04/21 06:46:18;;;;;;;6.87;5.75;;;11.40;99.90;;;;;;1894104;75;21176;-82
2023/04/21 06:49:10;;;;;;;6.05;5.30;;;11.50;99.90;;;;;;1894397;75;21136;-82
2023/04/21 06:52:01;;;;;;;10.10;5.58;;;11.50;99.90;;;;;;1898655;75;21468;-82
2023/04/21 06:54:53;;;;;;;8.70;5.40;;;11.60;99.90;;;;;;1895739;75;21095;-82
2023/04/21 06:57:44;;;;;;;6.97;5.05;;;11.60;99.90;;;;;;1925629;73;21131;-82
2023/04/21 07:00:36;;;;;;;5.50;4.97;;;11.70;99.90;;;;;;1888395;75;21098;-82
2023/04/21 07:03:27;;;;;;;6.20;4.40;;;11.70;99.90;;;;;;1903242;75;21106;-82
2023/04/21 07:06:19;;;;;;;7.15;4.20;;;11.80;99.90;;;;;;1897984;75;21055;-82
2023/04/21 07:09:10;;;;;;;4.97;3.90;;;11.80;99.90;;;;;;1898229;75;21091;-84
2023/04/21 07:12:02;;;;;;;6.12;4.10;;;12.00;99.90;;;;;;1891800;73;21147;-82
2023/04/21 07:14:53;;;;;;;7.22;4.00;;;12.10;99.90;;;;;;1895275;75;21117;-82
2023/04/21 07:17:44;;;;;;;5.67;3.67;;;12.10;99.90;;;;;;1896261;73;21102;-82
2023/04/21 07:23:14;;;;;;;5.67;3.95;;;12.20;99.90;;;;;;1951590;72;22251;-84
2023/04/21 07:26:05;;;;;;;5.83;3.75;;;12.20;99.90;;;;;;1902278;75;21156;-82
2023/04/21 07:28:57;;;;;;;4.80;3.75;;;12.40;99.90;;;;;;1904262;75;21182;-82
2023/04/21 07:31:48;;;;;;;3.72;3.25;;;12.50;99.90;;;;;;1907395;73;21160;-82
2023/04/21 07:34:40;;;;;;;5.25;3.75;;;12.60;99.90;;;;;;1913539;75;21094;-84
2023/04/21 07:37:32;;;;;;;4.70;3.55;;;12.70;99.90;;;;;;1888288;73;21170;-84
2023/04/21 07:40:26;;;;;;;3.62;3.25;;;12.80;99.90;;;;;;1916160;73;21102;-84
2023/04/21 07:43:18;;;;;;;4.33;3.00;;;12.90;99.90;;;;;;1906192;75;21114;-84
2023/04/21 07:48:52;;;;;;;2.67;1.98;;;13.10;99.90;;;;;;1955231;72;22680;-82
2023/04/21 07:51:43;;;;;;;3.12;2.10;;;13.10;99.90;;;;;;1916781;73;21115;-84
2023/04/21 07:54:34;;;;;;;4.80;2.40;;;13.30;99.90;;;;;;1924977;73;21169;-84
2023/04/21 07:57:26;;;;;;;5.58;2.58;;;13.40;99.90;;;;;;1925453;73;21107;-83
2023/04/21 08:00:19;;;;;;;2.95;1.98;;;13.70;99.90;;;;;;1938857;73;21200;-83
2023/04/21 08:03:11;;;;;;;4.35;2.35;;;13.80;99.90;;;;;;1934061;73;21177;-83
2023/04/21 08:06:06;;;;;;;2.70;2.10;;;13.80;99.90;;;;;;1917017;75;21055;-82
2023/04/21 08:08:57;;;;;;;3.75;2.02;;;13.80;99.90;;;;;;1937203;73;21173;-83
2023/04/21 08:11:49;;;;;;;4.20;2.00;;;13.90;99.90;;;;;;1916589;75;21180;-83
2023/04/21 08:14:41;;;;;;;1.95;1.62;;;14.00;99.90;;;;;;1915062;73;21722;-83
2023/04/21 08:20:13;;;;;;;4.42;2.30;;;14.30;99.90;;;;;;1931041;72;22197;-83
2023/04/21 08:23:04;;;;;;;2.65;1.80;;;14.40;99.90;;;;;;1904201;75;21067;-82
2023/04/21 08:25:56;;;;;;;2.67;1.72;;;14.60;99.90;;;;;;1908541;75;21095;-83
2023/04/21 08:28:48;;;;;;;3.15;2.10;;;14.60;99.90;;;;;;1883656;75;21602;-83
2023/04/21 08:31:39;;;;;;;3.45;1.70;;;14.70;99.90;;;;;;1881915;75;21132;-82
2023/04/21 08:34:31;;;;;;;3.02;1.85;;;14.70;99.90;;;;;;1893266;75;21155;-82
2023/04/21 08:37:24;;;;;;;2.70;1.62;;;14.70;99.90;;;;;;1871754;76;21659;-83
2023/04/21 08:40:16;;;;;;;2.77;1.62;;;14.70;99.90;;;;;;1871730;75;21104;-82
2023/04/21 08:43:08;;;;;;;2.95;1.70;;;14.90;99.90;;;;;;1872171;76;21180;-82
2023/04/21 08:49:21;;;;;;;3.58;1.60;;;15.10;99.90;;;;;;1893609;75;21233;-82
2023/04/21 08:52:13;;;;;;;1.90;1.35;;;15.20;99.90;;;;;;1893410;75;21249;-82
2023/04/21 08:55:07;;;;;;;2.83;1.70;;;15.30;99.90;;;;;;1888300;75;21122;-83
2023/04/21 08:57:59;;;;;;;2.85;1.67;;;15.20;99.90;;;;;;1883029;75;21094;-83
2023/04/21 09:00:50;;;;;;;5.83;1.82;;;15.20;99.90;;;;;;1883088;75;21178;-83
2023/04/21 09:03:42;;;;;;;2.55;1.70;;;15.20;99.90;;;;;;1882654;74;21181;-82
2023/04/21 09:06:42;;;;;;;3.05;1.60;;;15.20;99.90;;;;;;1887025;75;21102;-83
2023/04/21 09:09:35;;;;;;;2.47;1.40;;;15.50;99.90;;;;;;1886933;75;21083;-83
2023/04/21 09:12:27;;;;;;;3.12;2.30;;;15.50;99.90;;;;;;1872796;75;21114;-82
2023/04/21 09:15:20;;;;;;;1.82;1.72;;;15.50;99.90;;;;;;1893517;75;21055;-83
2023/04/21 09:18:17;;;;;;;4.50;3.80;;;15.40;99.90;;;;;;1873410;75;21120;-83
2023/04/21 09:21:10;;;;;;;3.70;1.50;;;15.20;99.90;;;;;;1886591;75;21209;-82
2023/04/21 09:24:06;;;;;;;2.90;1.50;;;15.20;99.90;;;;;;1885187;75;21095;-82
2023/04/21 09:26:57;;;;;;;2.47;1.40;;;15.20;99.90;;;;;;1883022;75;21134;-84
2023/04/21 09:29:49;;;;;;;3.50;1.40;;;15.20;99.90;;;;;;1878576;75;21271;-83
2023/04/21 09:32:53;;;;;;;1.45;1.12;;;15.20;99.90;;;;;;1891780;75;21650;-83
2023/04/21 09:35:44;;;;;;;2.60;1.40;;;15.40;99.90;;;;;;1880522;76;21537;-83
2023/04/21 09:38:35;;;;;;;3.52;1.30;;;15.50;99.90;;;;;;1861099;76;21153;-83
2023/04/21 09:41:27;;;;;;;2.65;1.10;;;15.60;99.90;;;;;;1891938;74;21559;-83
2023/04/21 09:44:19;;;;;;;1.77;1.10;;;15.90;99.90;;;;;;1891242;74;21089;-84
2023/04/21 09:47:13;;;;;;;1.67;1.27;;;16.10;99.90;;;;;;1891241;75;21490;-83
2023/04/21 09:50:08;;;;;;;2.20;1.20;;;16.10;99.90;;;;;;1923307;74;21595;-83
2023/04/21 09:53:03;;;;;;;2.42;1.57;;;16.20;99.90;;;;;;1879471;74;21109;-83
2023/04/21 09:55:57;;;;;;;3.72;1.72;;;16.40;99.90;;;;;;1889313;74;21102;-82
2023/04/21 10:01:31;;;;;;;2.35;1.35;;;16.70;99.90;;;;;;1958547;72;22245;-84
2023/04/21 10:04:24;;;;;;;1.98;1.07;;;16.70;99.90;;;;;;1950150;73;21882;-83
2023/04/21 10:07:17;;;;;;;1.92;1.30;;;16.70;99.90;;;;;;1921790;73;21648;-83
2023/04/21 10:10:12;;;;;;;3.77;1.87;;;16.80;99.90;;;;;;1916959;75;21109;-83
2023/04/21 10:15:44;;;;;;;2.87;1.65;;;16.90;99.90;;;;;;1955443;72;22261;-84
2023/04/21 10:18:37;;;;;;;2.75;1.40;;;16.90;99.90;;;;;;1900906;73;21269;-83
2023/04/21 10:21:30;;;;;;;2.52;1.65;;;17.10;99.90;;;;;;1905786;75;21092;-82
2023/04/21 10:24:22;;;;;;;3.22;1.80;;;17.30;99.90;;;;;;1901890;75;21107;-84
2023/04/21 10:27:15;;;;;;;2.30;1.65;;;17.50;99.90;;;;;;1916623;75;21286;-82
2023/04/21 10:30:25;;;;;;;4.22;1.60;;;17.60;99.90;;;;;;1906075;75;21173;-83
2023/04/21 10:33:18;;;;;;;5.40;2.15;;;17.70;99.90;;;;;;1897820;75;21130;-82
2023/04/21 10:36:14;;;;;;;3.55;2.08;;;17.80;99.90;;;;;;1901400;75;21051;-82
2023/04/21 10:39:07;;;;;;;3.40;1.82;;;17.90;99.90;;;;;;1903944;75;21325;-82
2023/04/21 10:42:19;;;;;;;3.50;1.80;;;18.00;99.90;;;;;;1916764;75;21191;-82
2023/04/21 10:45:12;;;;;;;3.65;2.27;;;18.10;99.90;;;;;;1898704;75;21644;-82
2023/04/21 10:48:07;;;;;;;5.08;1.85;;;18.20;99.90;;;;;;1894419;73;21142;-82
2023/04/21 10:51:00;;;;;;;3.52;1.52;;;18.30;99.90;;;;;;1894852;75;21169;-82
2023/04/21 10:54:05;;;;;;;3.17;1.50;;;18.50;99.90;;;;;;1894961;75;21160;-82
2023/04/21 10:57:30;;;;;;;2.47;1.42;;;18.50;99.90;;;;;;1911825;75;21054;-82
2023/04/21 11:00:23;;;;;;;3.52;1.60;;;18.70;99.90;;;;;;1905906;75;21099;-82
2023/04/21 11:03:16;;;;;;;2.33;1.50;;;18.80;99.90;;;;;;1883573;73;21632;-82
2023/04/21 11:06:17;;;;;;;3.12;1.67;;;18.90;99.90;;;;;;1897742;75;21102;-82
2023/04/21 11:09:18;;;;;;;3.08;1.40;;;19.10;99.90;;;;;;1890814;75;21109;-82
2023/04/21 11:12:13;;;;;;;2.15;1.52;;;19.30;99.90;;;;;;1905324;75;21121;-82
2023/04/21 11:15:16;;;;;;;3.00;1.85;;;19.30;99.90;;;;;;1908191;74;21111;-82
2023/04/21 11:18:20;;;;;;;2.35;1.52;;;19.20;99.90;;;;;;1893661;74;21504;-81
2023/04/21 11:21:20;;;;;;;1.72;1.50;;;19.50;99.90;;;;;;1912468;74;22304;-81
2023/04/21 11:24:11;;;;;;;1.92;1.50;;;19.70;99.90;;;;;;1909000;74;21120;-81
2023/04/21 11:27:11;;;;;;;3.87;1.85;;;19.90;99.90;;;;;;1892241;76;21110;-82
2023/04/21 11:30:04;;;;;;;2.15;1.50;;;20.00;99.90;;;;;;1921870;74;21127;-82
2023/04/21 11:32:56;;;;;;;2.05;1.40;;;20.20;99.90;;;;;;1900538;73;21113;-82
2023/04/21 11:35:50;;;;;;;2.62;1.55;;;20.40;99.90;;;;;;1911630;74;21168;-82
2023/04/21 11:38:42;;;;;;;3.02;1.90;;;20.40;99.90;;;;;;1911004;74;21679;-82
2023/04/21 11:41:35;;;;;;;4.25;1.40;;;20.30;99.90;;;;;;1924562;74;21094;-83
2023/04/21 11:44:35;;;;;;;2.40;1.82;;;20.50;99.90;;;;;;1898547;74;21639;-83
2023/04/21 11:47:28;;;;;;;4.95;3.12;;;20.70;99.90;;;;;;1907625;74;21377;-82
2023/04/21 11:50:32;;;;;;;4.17;1.35;;;20.80;99.90;;;;;;1906841;74;21153;-82
2023/04/21 11:53:25;;;;;;;3.37;1.32;;;20.80;99.90;;;;;;1909085;74;21131;-82
2023/04/21 11:56:21;;;;;;;2.92;2.60;;;21.10;99.90;;;;;;1900482;74;21172;-82
2023/04/21 11:59:14;;;;;;;2.80;1.85;;;21.20;99.90;;;;;;1892529;76;21168;-82
2023/04/21 12:02:06;;;;;;;1.47;1.10;;;21.40;99.90;;;;;;1910984;74;21125;-82
2023/04/21 12:05:03;;;;;;;3.40;1.40;;;21.20;99.90;;;;;;1889135;76;21146;-82
2023/04/21 12:07:57;;;;;;;1.82;0.72;;;21.30;99.90;;;;;;1903111;74;21149;-82
2023/04/21 12:10:50;;;;;;;1.90;0.90;;;21.10;99.90;;;;;;1903599;74;21135;-82
2023/04/21 12:13:42;;;;;;;1.10;0.80;;;21.00;99.90;;;;;;1903574;74;21176;-82
2023/04/21 12:16:33;;;;;;;2.27;1.10;;;20.90;99.90;;;;;;1891450;74;21126;-82
2023/04/21 12:19:27;;;;;;;2.17;1.20;;;20.90;99.90;;;;;;1887017;75;21526;-82
2023/04/21 12:22:22;;;;;;;1.82;1.07;;;20.80;99.90;;;;;;1894745;75;21118;-82
2023/04/21 12:25:26;;;;;;;4.33;1.10;;;20.90;99.90;;;;;;1894299;75;21129;-82
2023/04/21 12:28:18;;;;;;;1.65;0.90;;;21.20;99.90;;;;;;1891244;75;21138;-82
2023/04/21 12:31:09;;;;;;;2.22;1.10;;;21.30;99.90;;;;;;1882599;75;21137;-82
2023/04/21 12:34:01;;;;;;;2.33;1.10;;;21.30;99.90;;;;;;1887023;75;21334;-83
2023/04/21 12:36:54;;;;;;;2.80;1.00;;;21.30;99.90;;;;;;1882913;75;21160;-83
2023/04/21 12:39:45;;;;;;;1.05;0.78;;;21.40;99.90;;;;;;1881674;75;21059;-83
2023/04/21 12:42:40;;;;;;;5.58;0.90;;;21.70;99.90;;;;;;1882004;75;21189;-83
2023/04/21 12:45:32;;;;;;;1.92;0.70;;;21.80;98.70;;;;;;1897931;75;21094;-83
2023/04/21 12:48:24;;;;;;;2.47;0.62;;;22.00;96.90;;;;;;1896207;73;21156;-82
2023/04/21 12:51:15;;;;;;;2.12;0.60;;;22.00;94.70;;;;;;1886185;75;21118;-77
2023/04/21 12:54:08;;;;;;;2.00;0.62;;;22.00;92.60;;;;;;1905116;75;21120;-77
2023/04/21 12:56:59;;;;;;;2.10;0.88;;;22.00;91.50;;;;;;1916961;73;21042;-77
2023/04/21 12:59:51;;;;;;;0.88;0.70;;;22.10;91.00;;;;;;1897939;75;21642;-77
2023/04/21 13:02:42;;;;;;;3.05;1.30;;;22.10;90.60;;;;;;1883756;73;21157;-76
2023/04/21 13:05:34;;;;;;;1.62;1.10;;;22.20;90.80;;;;;;1868805;75;21106;-78
2023/04/21 13:08:25;;;;;;;1.20;0.80;;;22.30;89.70;;;;;;1882472;75;21063;-75
2023/04/21 13:11:17;;;;;;;1.75;0.68;;;22.40;88.70;;;;;;1890896;75;21157;-75
2023/04/21 13:14:09;;;;;;;1.80;0.80;;;22.50;89.40;;;;;;1881650;75;21136;-77
2023/04/21 13:17:00;;;;;;;1.15;0.78;;;22.60;87.00;;;;;;1885021;74;21252;-76
2023/04/21 13:19:52;;;;;;;1.22;0.50;;;22.50;86.80;;;;;;1914559;74;21164;-84
2023/04/21 13:22:47;;;;;;;2.12;0.60;;;22.60;85.00;;;;;;1910129;74;21189;-84
2023/04/21 13:25:38;;;;;;;1.77;0.70;;;22.70;86.50;;;;;;1904716;74;21565;-84
2023/04/21 13:28:30;;;;;;;2.02;0.70;;;22.80;85.20;;;;;;1897214;74;21099;-86
2023/04/21 13:31:22;;;;;;;1.95;0.80;;;23.00;84.40;;;;;;1914784;74;21134;-85
2023/04/21 13:34:13;;;;;;;1.85;0.70;;;22.90;83.40;;;;;;1911399;74;21180;-85
2023/04/21 13:37:07;;;;;;;1.15;0.60;;;22.80;82.70;;;;;;1912486;74;21092;-86
2023/04/21 13:40:01;;;;;;;2.30;0.88;;;22.90;83.80;;;;;;1914996;74;21146;-84
2023/04/21 13:42:53;;;;;;;0.68;0.68;;;22.90;82.50;;;;;;1914960;74;21135;-84
2023/04/21 13:45:46;;;;;;;1.82;0.90;;;23.10;83.10;;;;;;1892724;76;21059;-85
2023/04/21 13:48:37;;;;;;;1.00;0.70;;;23.20;82.60;;;;;;1892542;74;21188;-84
2023/04/21 13:51:28;;;;;;;3.50;0.93;;;23.20;81.70;;;;;;1899672;74;21136;-84
2023/04/21 13:54:20;;;;;;;7.17;0.93;;;23.30;81.80;;;;;;1903516;74;21091;-84
2023/04/21 13:57:12;;;;;;;0.70;0.60;;;23.40;81.50;;;;;;1904685;74;21148;-85
2023/04/21 14:02:43;;;;;;;1.57;0.70;;;23.30;78.60;;;;;;1931378;72;22302;-85
2023/04/21 14:05:36;;;;;;;2.05;0.70;;;23.30;78.20;;;;;;1869933;76;21125;-85
2023/04/21 14:08:27;;;;;;;2.52;0.85;;;23.50;79.60;;;;;;1884006;75;21074;-85
2023/04/21 14:11:19;;;;;;;2.98;0.80;;;23.60;78.50;;;;;;1903118;75;21100;-85
2023/04/21 14:14:11;;;;;;;2.75;1.52;;;23.90;78.00;;;;;;1904166;75;21166;-85
2023/04/21 14:17:04;;;;;;;1.27;0.85;;;24.00;76.80;;;;;;1888478;74;21129;-86
2023/04/21 14:19:56;;;;;;;3.22;0.70;;;24.10;76.50;;;;;;1909306;75;21115;-85
2023/04/21 14:22:47;;;;;;;1.77;0.88;;;24.50;75.60;;;;;;1897017;75;21134;-85
2023/04/21 14:25:39;;;;;;;1.20;0.62;;;24.50;74.70;;;;;;1883633;76;21175;-84
2023/04/21 14:28:31;;;;;;;1.90;0.80;;;25.00;74.30;;;;;;1883892;75;21079;-85
2023/04/21 14:31:23;;;;;;;3.25;0.80;;;24.90;73.40;;;;;;1886124;74;21113;-85
2023/04/21 14:34:14;;;;;;;1.85;0.70;;;24.80;71.80;;;;;;1883800;76;21114;-85
2023/04/21 14:37:05;;;;;;;1.72;1.00;;;25.20;72.10;;;;;;1883453;76;21182;-85
2023/04/21 14:39:57;;;;;;;1.75;0.82;;;25.80;71.00;;;;;;1886478;75;21136;-84
2023/04/21 14:42:49;;;;;;;0.82;0.65;;;26.60;68.70;;;;;;1884317;75;21117;-85
2023/04/21 14:45:41;;;;;;;1.85;0.70;;;26.60;66.40;;;;;;1898513;75;21050;-85
2023/04/21 14:48:37;;;;;;;0.90;0.70;;;26.50;66.50;;;;;;1894516;75;21192;-85
2023/04/21 14:51:30;;;;;;;0.90;0.70;;;26.20;66.40;;;;;;1894739;75;21141;-85
2023/04/21 14:54:22;;;;;;;3.75;0.82;;;25.80;66.40;;;;;;1888018;75;21216;-85
2023/04/21 14:57:13;;;;;;;1.42;0.70;;;25.50;67.10;;;;;;1891466;75;21103;-85
2023/04/21 15:00:09;;;;;;;1.72;1.00;;;25.60;67.00;;;;;;1891412;75;21158;-85
2023/04/21 15:03:00;;;;;;;2.25;0.78;;;25.60;67.50;;;;;;1877393;75;21074;-85
2023/04/21 15:05:52;;;;;;;1.32;0.90;;;25.30;67.40;;;;;;1894461;75;21563;-85
2023/04/21 15:08:44;;;;;;;1.05;0.70;;;25.30;68.00;;;;;;1888200;75;21155;-85
2023/04/21 15:11:35;;;;;;;0.93;0.80;;;25.10;67.70;;;;;;1889865;75;21125;-85
2023/04/21 15:14:27;;;;;;;1.90;0.93;;;25.00;67.80;;;;;;1892048;75;21217;-79
2023/04/21 15:17:19;;;;;;;2.80;1.07;;;25.00;67.60;;;;;;1881613;74;21118;-79
2023/04/21 15:20:12;;;;;;;0.70;0.70;;;24.70;67.80;;;;;;1832539;76;21071;-80
2023/04/21 15:23:03;;;;;;;3.58;0.80;;;24.70;67.90;;;;;;1898467;75;21106;-80
2023/04/21 15:25:55;;;;;;;1.95;1.00;;;25.30;67.00;;;;;;1909395;75;21125;-80
2023/04/21 15:28:46;;;;;;;2.00;0.88;;;25.40;66.40;;;;;;1885920;75;21113;-80